createdAt,value
2024-01-15T00:00:06.317Z,-4.52
2024-01-15T00:02:35.208Z,-4.42
2024-01-15T00:05:03.919Z,-4.34
2024-01-15T00:07:32.712Z,-4.27
2024-01-15T00:10:01.329Z,-4.17
2024-01-15T00:12:29.887Z,-4.50
2024-01-15T00:14:58.440Z,-4.13
2024-01-15T00:17:28.468Z,-4.12
2024-01-15T00:19:57.129Z,-4.18
2024-01-15T00:22:27.837Z,-4.25
2024-01-15T00:24:56.564Z,-4.30
2024-01-15T00:27:25.046Z,-4.24
2024-01-15T00:29:53.695Z,-4.19
2024-01-15T00:32:22.052Z,-4.16
2024-01-15T00:34:52.393Z,-4.15
2024-01-15T00:37:21.089Z,-4.11
2024-01-15T00:39:49.872Z,-4.18
2024-01-15T00:42:18.864Z,-4.20
2024-01-15T00:44:47.719Z,-4.22
2024-01-15T00:47:16.744Z,-4.24
2024-01-15T00:49:45.116Z,-4.22
2024-01-15T00:52:15.032Z,-4.21
2024-01-15T00:54:45.804Z,-4.18
2024-01-15T00:57:14.477Z,-4.20
2024-01-15T00:59:43.514Z,-4.21
2024-01-15T01:02:12.115Z,-4.21
2024-01-15T01:04:40.945Z,-4.24
2024-01-15T01:07:09.809Z,-4.26
2024-01-15T01:09:39.881Z,-4.27
2024-01-15T01:12:09.055Z,-4.32
2024-01-15T01:14:37.523Z,-4.26
2024-01-15T01:17:06.387Z,-4.27
2024-01-15T01:19:35.269Z,-4.25
2024-01-15T01:22:03.980Z,-4.48
2024-01-15T01:24:32.999Z,-4.21
2024-01-15T01:27:03.404Z,-4.83
2024-01-15T01:29:31.909Z,-4.18
2024-01-15T01:32:01.010Z,-4.18
2024-01-15T01:34:32.881Z,-4.16
2024-01-15T01:37:06.490Z,-4.12
2024-01-15T01:39:34.899Z,-4.10
2024-01-15T01:42:05.017Z,-4.03
2024-01-15T01:44:33.473Z,-3.94
2024-01-15T01:47:03.033Z,-3.77
2024-01-15T01:49:32.179Z,-3.52
2024-01-15T01:52:02.832Z,-3.38
2024-01-15T01:54:34.231Z,-3.25
2024-01-15T01:57:07.302Z,-3.26
2024-01-15T01:59:37.073Z,-3.09
2024-01-15T02:02:06.277Z,-3.01
2024-01-15T02:04:53.381Z,-3.01
2024-01-15T02:07:22.745Z,-2.97
2024-01-15T02:09:52.654Z,-3.41
2024-01-15T02:12:22.911Z,-2.75
2024-01-15T02:14:51.929Z,-2.66
2024-01-15T02:17:20.853Z,-2.77
2024-01-15T02:19:51.574Z,-2.56
2024-01-15T02:22:20.360Z,-2.52
2024-01-15T02:24:50.483Z,-2.61
2024-01-15T02:27:20.629Z,-2.34
2024-01-15T02:29:49.457Z,-2.31
2024-01-15T02:32:18.031Z,-2.44
2024-01-15T02:34:47.152Z,-2.48
2024-01-15T02:37:15.811Z,-2.46
2024-01-15T02:39:44.459Z,-2.51
2024-01-15T02:42:14.813Z,-2.51
2024-01-15T02:44:43.299Z,-2.49
2024-01-15T02:47:12.314Z,-2.43
2024-01-15T02:49:40.852Z,-2.53
2024-01-15T02:52:09.634Z,-2.50
2024-01-15T02:54:38.397Z,-2.50
2024-01-15T02:57:07.237Z,-2.54
2024-01-15T02:59:37.505Z,-2.54
2024-01-15T03:02:06.700Z,-2.58
2024-01-15T03:04:35.730Z,-2.62
2024-01-15T03:07:04.418Z,-2.63
2024-01-15T03:09:33.242Z,-2.66
2024-01-15T03:12:01.997Z,-2.71
2024-01-15T03:14:30.843Z,-2.61
2024-01-15T03:17:02.110Z,-2.73
2024-01-15T03:19:31.975Z,-2.78
2024-01-15T03:22:01.940Z,-2.81
2024-01-15T03:24:30.414Z,-2.69
2024-01-15T03:26:59.271Z,-2.67
2024-01-15T03:29:28.699Z,-2.65
2024-01-15T03:32:00.443Z,-2.68
2024-01-15T03:34:30.458Z,-2.67
2024-01-15T03:37:00.092Z,-2.66
2024-01-15T03:39:29.186Z,-2.65
2024-01-15T03:41:58.998Z,-2.71
2024-01-15T03:44:27.830Z,-2.58
2024-01-15T03:46:56.638Z,-2.59
2024-01-15T03:49:26.792Z,-2.55
2024-01-15T03:51:57.326Z,-2.67
2024-01-15T03:54:26.517Z,-2.64
2024-01-15T03:56:55.823Z,-2.64
2024-01-15T03:59:25.407Z,-2.67
2024-01-15T04:01:54.183Z,-2.63
2024-01-15T04:04:22.859Z,-2.68
2024-01-15T04:06:51.444Z,-2.71
2024-01-15T04:09:21.621Z,-2.72
2024-01-15T04:11:50.082Z,-2.76
2024-01-15T04:14:18.974Z,-2.75
2024-01-15T04:16:47.762Z,-2.76
2024-01-15T04:19:16.189Z,-2.68
2024-01-15T04:21:45.215Z,-2.75
2024-01-15T04:24:13.762Z,-2.80
2024-01-15T04:26:46.079Z,-3.38
2024-01-15T04:29:14.533Z,-2.95
2024-01-15T04:31:43.393Z,-3.04
2024-01-15T04:34:11.927Z,-2.97
2024-01-15T04:36:42.532Z,-3.04
2024-01-15T04:39:13.067Z,-3.08
2024-01-15T04:41:41.859Z,-3.19
2024-01-15T04:44:11.796Z,-3.25
2024-01-15T04:46:40.786Z,-3.28
2024-01-15T04:49:10.032Z,-3.27
2024-01-15T04:51:39.152Z,-3.32
2024-01-15T04:54:07.776Z,-3.33
2024-01-15T04:56:36.672Z,-3.36
2024-01-15T04:59:05.170Z,-3.36
2024-01-15T05:01:35.752Z,-3.60
2024-01-15T05:04:04.536Z,-3.35
2024-01-15T05:06:33.378Z,-3.24
2024-01-15T05:09:01.976Z,-3.20
2024-01-15T05:11:30.502Z,-3.09
2024-01-15T05:13:59.368Z,-3.09
2024-01-15T05:16:30.475Z,-3.02
2024-01-15T05:19:01.083Z,-2.91
2024-01-15T05:21:29.968Z,-2.78
2024-01-15T05:23:58.906Z,-2.85
2024-01-15T05:26:27.404Z,-2.88
2024-01-15T05:28:56.302Z,-2.80
2024-01-15T05:31:24.809Z,-2.82
2024-01-15T05:33:53.444Z,-2.80
2024-01-15T05:36:23.238Z,-2.79
2024-01-15T05:38:52.300Z,-2.85
2024-01-15T05:41:21.578Z,-2.91
2024-01-15T05:43:50.458Z,-2.96
2024-01-15T05:46:18.983Z,-2.92
2024-01-15T05:48:47.689Z,-3.06
2024-01-15T05:51:16.177Z,-3.03
2024-01-15T05:53:47.016Z,-2.99
2024-01-15T05:56:16.279Z,-3.01
2024-01-15T05:58:44.595Z,-2.98
2024-01-15T06:01:13.327Z,-2.95
2024-01-15T06:03:42.095Z,-2.92
2024-01-15T06:06:11.351Z,-3.05
2024-01-15T06:08:40.387Z,-2.82
2024-01-15T06:11:10.469Z,-2.88
2024-01-15T06:13:39.226Z,-2.93
2024-01-15T06:16:15.860Z,-2.93
2024-01-15T06:18:44.662Z,-2.95
2024-01-15T06:21:14.354Z,-2.93
2024-01-15T06:23:43.079Z,-2.93
2024-01-15T06:26:14.317Z,-2.94
2024-01-15T06:28:45.048Z,-2.95
2024-01-15T06:31:13.941Z,-2.95
2024-01-15T06:33:43.065Z,-2.85
2024-01-15T06:36:12.347Z,-2.88
2024-01-15T06:38:43.151Z,-3.08
2024-01-15T06:41:13.472Z,-2.87
2024-01-15T06:43:42.227Z,-2.83
2024-01-15T06:46:12.294Z,-2.84
2024-01-15T06:48:41.227Z,-2.82
2024-01-15T06:51:09.775Z,-2.84
2024-01-15T06:53:41.141Z,-2.84
2024-01-15T06:56:09.755Z,-2.80
2024-01-15T06:58:39.651Z,-3.11
2024-01-15T07:01:09.446Z,-2.82
2024-01-15T07:03:38.303Z,-2.77
2024-01-15T07:06:07.899Z,-2.78
2024-01-15T07:08:36.287Z,-2.80
2024-01-15T07:11:06.380Z,-2.70
2024-01-15T07:13:35.804Z,-2.65
2024-01-15T07:16:06.482Z,-2.81
2024-01-15T07:18:35.677Z,-2.78
2024-01-15T07:21:04.096Z,-2.85
2024-01-15T07:23:33.788Z,-2.87
2024-01-15T07:26:02.379Z,-2.85
2024-01-15T07:28:32.162Z,-2.83
2024-01-15T07:31:00.977Z,-2.77
2024-01-15T07:33:30.996Z,-2.76
2024-01-15T07:36:03.619Z,-2.73
2024-01-15T07:38:32.457Z,-2.74
2024-01-15T07:41:01.244Z,-2.67
2024-01-15T07:43:30.500Z,-2.67
2024-01-15T07:46:00.129Z,-2.65
2024-01-15T07:48:33.525Z,-2.62
2024-01-15T07:51:02.114Z,-2.64
2024-01-15T07:53:30.807Z,-2.64
2024-01-15T07:55:59.843Z,-2.58
2024-01-15T07:58:30.746Z,-2.60
2024-01-15T08:00:59.577Z,-2.55
2024-01-15T08:03:28.740Z,-2.38
2024-01-15T08:06:02.013Z,-2.50
2024-01-15T08:08:31.597Z,-2.52
2024-01-15T08:11:00.545Z,-2.52
2024-01-15T08:13:29.586Z,-2.44
2024-01-15T08:15:58.215Z,-2.42
2024-01-15T08:18:29.250Z,-2.42
2024-01-15T08:20:59.485Z,-2.37
2024-01-15T08:23:29.420Z,-2.35
2024-01-15T08:25:58.064Z,-2.29
2024-01-15T08:28:26.790Z,-2.35
2024-01-15T08:30:55.763Z,-2.30
2024-01-15T08:33:24.768Z,-2.23
2024-01-15T08:35:53.376Z,-2.24
2024-01-15T08:38:24.237Z,-2.17
2024-01-15T08:40:54.876Z,-2.10
2024-01-15T08:43:23.756Z,-2.03
2024-01-15T08:45:52.584Z,-1.99
2024-01-15T08:48:21.645Z,-2.06
2024-01-15T08:50:51.830Z,-1.88
2024-01-15T08:53:23.152Z,-1.90
2024-01-15T08:55:51.841Z,-1.87
2024-01-15T08:58:20.320Z,-1.81
2024-01-15T09:00:48.977Z,-1.79
2024-01-15T09:03:17.733Z,-1.72
2024-01-15T09:05:46.660Z,-1.73
2024-01-15T09:08:19.201Z,-1.68
2024-01-15T09:10:49.773Z,-1.64
2024-01-15T09:13:18.774Z,-1.67
2024-01-15T09:15:47.546Z,-1.68
2024-01-15T09:18:16.348Z,-1.61
2024-01-15T09:20:44.866Z,-1.58
2024-01-15T09:23:13.619Z,-1.54
2024-01-15T09:25:42.352Z,-1.54
2024-01-15T09:28:12.479Z,-1.40
2024-01-15T09:30:40.893Z,-1.43
2024-01-15T09:33:09.589Z,-1.40
2024-01-15T09:35:38.214Z,-1.83
2024-01-15T09:38:07.143Z,-1.32
2024-01-15T09:40:41.530Z,-1.26
2024-01-15T09:43:12.009Z,-1.26
2024-01-15T09:45:41.125Z,-1.55
2024-01-15T09:48:10.368Z,-1.13
2024-01-15T09:50:39.526Z,-1.11
2024-01-15T09:53:08.821Z,-1.15
2024-01-15T09:55:39.061Z,-1.09
2024-01-15T09:58:07.903Z,-1.13
2024-01-15T10:00:40.533Z,-1.11
2024-01-15T10:03:09.486Z,-1.13
2024-01-15T10:05:38.084Z,-0.94
2024-01-15T10:08:07.848Z,-0.89
2024-01-15T10:10:39.027Z,-0.95
2024-01-15T10:13:08.490Z,-0.94
2024-01-15T10:15:40.674Z,-0.95
2024-01-15T10:18:09.457Z,-0.94
2024-01-15T10:20:37.892Z,-0.96
2024-01-15T10:23:06.875Z,-1.28
2024-01-15T10:25:35.479Z,-1.11
2024-01-15T10:28:04.928Z,-1.19
2024-01-15T10:30:34.948Z,-1.07
2024-01-15T10:33:07.154Z,-1.06
2024-01-15T10:35:37.009Z,-1.13
2024-01-15T10:38:06.672Z,-1.10
2024-01-15T10:40:35.444Z,-1.03
2024-01-15T10:43:06.860Z,-1.14
2024-01-15T10:45:35.153Z,-1.16
2024-01-15T10:48:06.352Z,-1.50
2024-01-15T10:50:35.108Z,-1.23
2024-01-15T10:53:07.664Z,-1.24
2024-01-15T10:55:36.386Z,-1.32
2024-01-15T10:58:06.114Z,-1.37
2024-01-15T11:00:35.064Z,-1.42
2024-01-15T11:03:07.228Z,-1.31
2024-01-15T11:05:37.225Z,-1.78
2024-01-15T11:08:08.299Z,-1.24
2024-01-15T11:10:44.044Z,-1.53
2024-01-15T11:13:13.290Z,-1.29
2024-01-15T11:15:58.280Z,-1.33
2024-01-15T11:18:29.628Z,-1.36
2024-01-15T11:21:27.630Z,-1.38
2024-01-15T11:23:59.373Z,-1.42
2024-01-15T11:26:38.861Z,-1.37
2024-01-15T11:29:08.958Z,-1.30
2024-01-15T11:32:00.577Z,-1.33
2024-01-15T11:35:04.009Z,-1.31
2024-01-15T11:37:59.608Z,-1.26
2024-01-15T11:40:49.841Z,-1.16
2024-01-15T11:43:21.917Z,-1.34
2024-01-15T11:45:55.254Z,-1.25
2024-01-15T11:48:25.920Z,-1.22
2024-01-15T11:50:56.245Z,-1.68
2024-01-15T11:53:35.603Z,-1.16
2024-01-15T11:56:05.293Z,-1.19
2024-01-15T11:58:33.720Z,-1.23
2024-01-15T12:01:02.402Z,-1.18
2024-01-15T12:03:36.044Z,-1.21
2024-01-15T12:06:08.690Z,-1.26
2024-01-15T12:08:37.737Z,-1.30
2024-01-15T12:11:09.641Z,-1.25
2024-01-15T12:13:38.279Z,-1.19
2024-01-15T12:16:07.114Z,-1.27
2024-01-15T12:18:36.331Z,-1.12
2024-01-15T12:21:06.977Z,-1.08
2024-01-15T12:23:36.411Z,-1.09
2024-01-15T12:26:05.563Z,-1.11
2024-01-15T12:28:34.111Z,-1.05
2024-01-15T12:31:06.866Z,-0.99
2024-01-15T12:33:36.339Z,-0.98
2024-01-15T12:36:07.128Z,-1.06
2024-01-15T12:38:36.012Z,-0.94
2024-01-15T12:41:04.513Z,-0.97
2024-01-15T12:43:33.478Z,-0.89
2024-01-15T12:46:02.425Z,-0.97
2024-01-15T12:48:32.212Z,-0.97
2024-01-15T12:51:00.615Z,-0.90
2024-01-15T12:53:30.855Z,-0.92
2024-01-15T12:55:59.617Z,-0.81
2024-01-15T12:58:28.339Z,-0.87
2024-01-15T13:00:57.258Z,-0.83
2024-01-15T13:03:26.285Z,-0.76
2024-01-15T13:05:54.919Z,-0.78
2024-01-15T13:08:26.651Z,-0.73
2024-01-15T13:10:58.213Z,-0.64
2024-01-15T13:13:27.562Z,-0.70
2024-01-15T13:15:56.559Z,-0.87
2024-01-15T13:18:26.540Z,-0.90
2024-01-15T13:20:55.349Z,-0.81
2024-01-15T13:23:24.725Z,-0.79
2024-01-15T13:25:53.969Z,-0.81
2024-01-15T13:28:25.098Z,-0.76
2024-01-15T13:30:55.296Z,-0.78
2024-01-15T13:33:24.577Z,-0.92
2024-01-15T13:35:55.651Z,-0.84
2024-01-15T13:38:25.669Z,-0.88
2024-01-15T13:40:54.729Z,-0.90
2024-01-15T13:43:24.819Z,-0.88
2024-01-15T13:45:55.367Z,-0.90
2024-01-15T13:48:23.857Z,-0.95
2024-01-15T13:50:52.728Z,-0.98
2024-01-15T13:53:21.439Z,-0.90
2024-01-15T13:55:50.276Z,-1.52
2024-01-15T13:58:19.720Z,-0.97
2024-01-15T14:00:50.032Z,-0.94
2024-01-15T14:03:18.605Z,-0.92
2024-01-15T14:05:47.317Z,-0.79
2024-01-15T14:08:16.937Z,-0.79
2024-01-15T14:10:46.677Z,-0.81
2024-01-15T14:13:15.653Z,-0.85
2024-01-15T14:15:44.537Z,-0.84
2024-01-15T14:18:14.723Z,-0.82
2024-01-15T14:20:43.968Z,-0.81
2024-01-15T14:23:13.008Z,-0.83
2024-01-15T14:25:42.100Z,-0.82
2024-01-15T14:28:10.472Z,-0.80
2024-01-15T14:30:39.119Z,-0.81
2024-01-15T14:33:08.920Z,-0.67
2024-01-15T14:35:40.384Z,-0.70
2024-01-15T14:38:08.926Z,-0.74
2024-01-15T14:40:38.617Z,-0.80
2024-01-15T14:43:07.494Z,-0.79
2024-01-15T14:45:35.837Z,-0.72
2024-01-15T14:48:04.412Z,-0.70
2024-01-15T14:50:33.125Z,-0.72
2024-01-15T14:53:03.626Z,-0.78
2024-01-15T14:55:33.628Z,-0.71
2024-01-15T14:58:02.131Z,-0.79
2024-01-15T15:00:30.690Z,-0.81
2024-01-15T15:02:59.159Z,-0.83
2024-01-15T15:05:30.769Z,-0.83
2024-01-15T15:07:59.418Z,-0.84
2024-01-15T15:10:29.447Z,-0.86
2024-01-15T15:12:58.248Z,-0.86
2024-01-15T15:15:26.947Z,-0.92
2024-01-15T15:17:56.510Z,-1.00
2024-01-15T15:20:25.293Z,-0.91
2024-01-15T15:22:57.123Z,-0.95
2024-01-15T15:25:25.820Z,-0.93
2024-01-15T15:27:55.603Z,-0.92
2024-01-15T15:30:24.264Z,-0.85
2024-01-15T15:32:54.948Z,-0.88
2024-01-15T15:35:25.234Z,-0.88
2024-01-15T15:37:54.067Z,-0.91
2024-01-15T15:40:23.952Z,-0.88
2024-01-15T15:42:52.632Z,-0.92
2024-01-15T15:45:22.784Z,-0.84
2024-01-15T15:47:51.475Z,-0.88
2024-01-15T15:50:20.119Z,-0.91
2024-01-15T15:52:48.453Z,-0.87
2024-01-15T15:55:16.887Z,-1.49
2024-01-15T15:57:45.313Z,-0.89
2024-01-15T16:00:15.027Z,-0.93
2024-01-15T16:02:45.626Z,-1.00
2024-01-15T16:05:14.520Z,-1.04
2024-01-15T16:07:43.830Z,-1.07
2024-01-15T16:10:12.483Z,-1.05
2024-01-15T16:12:41.263Z,-1.10
2024-01-15T16:15:20.018Z,-0.98
2024-01-15T16:23:17.228Z,-0.98
2024-01-15T16:23:31.639Z,-1.02
2024-01-15T16:24:04.665Z,-1.07
2024-01-15T16:26:16.425Z,-1.10
2024-01-15T16:28:45.896Z,-1.14
2024-01-15T16:31:14.263Z,-1.18
2024-01-15T16:33:47.904Z,-1.14
2024-01-15T16:36:21.932Z,-1.14
2024-01-15T16:38:54.809Z,-1.15
2024-01-15T16:41:23.444Z,-1.11
2024-01-15T16:43:52.793Z,-1.16
2024-01-15T16:46:21.438Z,-1.13
2024-01-15T16:48:51.433Z,-1.14
2024-01-15T16:51:20.616Z,-1.06
2024-01-15T16:53:49.263Z,-1.13
2024-01-15T16:56:18.958Z,-1.16
2024-01-15T16:58:48.465Z,-1.15
2024-01-15T17:01:17.047Z,-1.20
2024-01-15T17:03:45.819Z,-1.22
2024-01-15T17:06:17.182Z,-1.16
2024-01-15T17:08:45.756Z,-1.24
2024-01-15T17:11:14.613Z,-1.27
2024-01-15T17:13:43.222Z,-1.29
2024-01-15T17:16:12.076Z,-1.31
2024-01-15T17:18:42.488Z,-1.33
2024-01-15T17:21:14.426Z,-1.38
2024-01-15T17:23:44.259Z,-1.33
2024-01-15T17:26:13.415Z,-1.34
2024-01-15T17:28:41.926Z,-1.38
2024-01-15T17:31:11.393Z,-1.38
2024-01-15T17:33:39.897Z,-1.40
2024-01-15T17:36:08.443Z,-1.42
2024-01-15T17:38:36.963Z,-1.32
2024-01-15T17:41:07.213Z,-1.40
2024-01-15T17:43:37.635Z,-1.44
2024-01-15T17:46:06.267Z,-1.39
2024-01-15T17:48:34.759Z,-1.37
2024-01-15T17:51:04.494Z,-1.44
2024-01-15T17:53:34.094Z,-1.34
2024-01-15T17:56:02.804Z,-1.33
2024-01-15T17:58:33.317Z,-1.37
2024-01-15T18:01:03.463Z,-1.30
2024-01-15T18:03:32.679Z,-1.29
2024-01-15T18:06:01.269Z,-1.28
2024-01-15T18:08:33.050Z,-1.34
2024-01-15T18:11:01.952Z,-1.35
2024-01-15T18:13:30.614Z,-1.26
2024-01-15T18:16:00.717Z,-1.26
2024-01-15T18:18:29.588Z,-1.10
2024-01-15T18:20:59.038Z,-1.06
2024-01-15T18:23:27.716Z,-1.10
2024-01-15T18:25:56.508Z,-1.04
2024-01-15T18:28:25.521Z,-0.95
2024-01-15T18:30:53.919Z,-1.03
2024-01-15T18:33:24.665Z,-1.60
2024-01-15T18:35:53.712Z,-1.06
2024-01-15T18:38:23.062Z,-1.36
2024-01-15T18:40:52.261Z,-0.98
2024-01-15T18:43:21.491Z,-1.07
2024-01-15T18:45:50.750Z,-1.04
2024-01-15T18:48:19.582Z,-1.00
2024-01-15T18:50:49.383Z,-1.09
2024-01-15T18:53:17.815Z,-1.15
2024-01-15T18:55:46.720Z,-1.20
2024-01-15T18:58:15.830Z,-1.21
2024-01-15T19:00:44.243Z,-1.21
2024-01-15T19:03:13.319Z,-1.24
2024-01-15T19:05:41.916Z,-1.23
2024-01-15T19:08:15.212Z,-1.25
2024-01-15T19:10:46.391Z,-1.23
2024-01-15T19:13:15.668Z,-1.22
2024-01-15T19:15:44.210Z,-1.30
2024-01-15T19:18:13.208Z,-1.34
2024-01-15T19:20:41.928Z,-1.44
2024-01-15T19:23:12.770Z,-1.51
2024-01-15T19:25:41.652Z,-1.46
2024-01-15T19:28:10.218Z,-1.43
2024-01-15T19:30:39.593Z,-1.42
2024-01-15T19:33:08.988Z,-1.64
2024-01-15T19:35:40.477Z,-1.33
2024-01-15T19:38:10.549Z,-1.33
2024-01-15T19:40:40.440Z,-1.32
2024-01-15T19:43:09.042Z,-1.31
2024-01-15T19:45:37.674Z,-1.32
2024-01-15T19:48:07.692Z,-1.27
2024-01-15T19:50:36.343Z,-1.13
2024-01-15T19:53:04.784Z,-1.11
2024-01-15T19:55:33.423Z,-1.05
2024-01-15T19:58:04.021Z,-1.11
2024-01-15T20:00:32.753Z,-1.55
2024-01-15T20:03:01.674Z,-1.03
2024-01-15T20:05:31.590Z,-1.03
2024-01-15T20:08:00.330Z,-1.01
2024-01-15T20:10:28.821Z,-0.91
2024-01-15T20:12:58.445Z,-0.98
2024-01-15T20:15:29.947Z,-1.00
2024-01-15T20:17:58.734Z,-0.98
2024-01-15T20:20:27.531Z,-1.14
2024-01-15T20:22:57.520Z,-1.21
2024-01-15T20:25:25.998Z,-1.28
2024-01-15T20:27:54.703Z,-1.28
2024-01-15T20:30:23.813Z,-1.29
2024-01-15T20:32:54.127Z,-1.28
2024-01-15T20:35:23.650Z,-1.27
2024-01-15T20:37:56.812Z,-1.29
2024-01-15T20:40:25.740Z,-1.32
2024-01-15T20:42:55.186Z,-1.29
2024-01-15T20:45:25.464Z,-1.25
2024-01-15T20:47:57.182Z,-1.26
2024-01-15T20:50:25.952Z,-1.23
2024-01-15T20:52:55.072Z,-1.35
2024-01-15T20:55:23.846Z,-1.22
2024-01-15T20:57:53.010Z,-1.18
2024-01-15T21:00:22.565Z,-1.09
2024-01-15T21:02:51.612Z,-1.12
2024-01-15T21:05:21.738Z,-1.05
2024-01-15T21:07:52.977Z,-1.54
2024-01-15T21:10:22.629Z,-1.06
2024-01-15T21:12:51.016Z,-1.09
2024-01-15T21:15:19.427Z,-1.11
2024-01-15T21:17:50.571Z,-1.09
2024-01-15T21:20:19.428Z,-1.08
2024-01-15T21:22:49.728Z,-1.10
2024-01-15T21:25:18.564Z,-1.10
2024-01-15T21:27:47.541Z,-1.08
2024-01-15T21:30:17.105Z,-1.10
2024-01-15T21:32:45.676Z,-1.06
2024-01-15T21:35:14.507Z,-1.11
2024-01-15T21:37:44.429Z,-1.05
2024-01-15T21:40:15.676Z,-1.09
2024-01-15T21:42:45.037Z,-1.08
2024-01-15T21:45:13.539Z,-1.03
2024-01-15T21:47:42.515Z,-1.10
2024-01-15T21:50:11.659Z,-1.12
2024-01-15T21:52:40.235Z,-1.14
2024-01-15T21:55:11.057Z,-1.08
2024-01-15T21:57:41.477Z,-1.10
2024-01-15T22:00:10.984Z,-1.14
2024-01-15T22:02:42.108Z,-1.15
2024-01-15T22:05:12.247Z,-1.20
2024-01-15T22:07:43.122Z,-1.18
2024-01-15T22:10:12.627Z,-1.12
2024-01-15T22:12:43.218Z,-1.08
2024-01-15T22:15:14.296Z,-1.13
2024-01-15T22:17:43.080Z,-1.28
2024-01-15T22:20:12.358Z,-1.26
2024-01-15T22:22:41.216Z,-1.25
2024-01-15T22:25:10.710Z,-1.24
2024-01-15T22:27:39.019Z,-1.25
2024-01-15T22:30:11.866Z,-1.21
2024-01-15T22:32:40.685Z,-1.16
2024-01-15T22:35:11.891Z,-1.39
2024-01-15T22:37:41.905Z,-1.20
2024-01-15T22:40:11.388Z,-1.25
2024-01-15T22:42:39.905Z,-1.24
2024-01-15T22:45:11.556Z,-1.28
2024-01-15T22:47:41.816Z,-1.23
2024-01-15T22:50:11.238Z,-1.18
2024-01-15T22:52:40.356Z,-1.26
2024-01-15T22:55:09.902Z,-1.12
2024-01-15T22:57:38.588Z,-1.25
2024-01-15T23:00:14.326Z,-1.26
2024-01-15T23:02:42.758Z,-1.20
2024-01-15T23:05:11.909Z,-1.25
2024-01-15T23:07:43.356Z,-1.30
2024-01-15T23:10:11.986Z,-1.21
2024-01-15T23:12:40.832Z,-1.26
2024-01-15T23:15:11.498Z,-1.31
2024-01-15T23:17:40.297Z,-1.20
2024-01-15T23:20:15.182Z,-1.32
2024-01-15T23:22:43.797Z,-1.35
2024-01-15T23:25:12.686Z,-1.32
2024-01-15T23:27:41.777Z,-1.36
2024-01-15T23:30:15.014Z,-1.32
2024-01-15T23:32:44.229Z,-1.25
2024-01-15T23:35:13.002Z,-1.37
2024-01-15T23:37:42.323Z,-1.44
2024-01-15T23:40:11.784Z,-1.31
2024-01-15T23:42:43.252Z,-1.32
2024-01-15T23:45:13.122Z,-1.35
2024-01-15T23:47:41.543Z,-1.38
2024-01-15T23:50:10.880Z,-1.44
2024-01-15T23:52:39.214Z,-1.42
2024-01-15T23:55:08.645Z,-1.40
2024-01-15T23:57:37.199Z,-1.45
